Time;durP1;ratioP1;P1;durP2;ratioP2;P2;SDS_P1;SDS_P2;PMS_P1;PMS_P2;Temp;Humidity;BMP_temperature;BMP_pressure;BME280_temperature;BME280_humidity;BME280_pressure;Samples;Min_cycle;Max_cycle;Signal;HPM_P1;HPM_P2
2022/05/11 00:01:35;;;;;;;8.93;8.18;;;;;;;;;;5105421;28;20196;-69
2022/05/11 00:04:02;;;;;;;8.88;8.18;;;;;;;;;;5104763;28;20441;-69
2022/05/11 00:06:29;;;;;;;8.07;7.30;;;;;;;;;;5104813;28;20283;-69
2022/05/11 00:08:55;;;;;;;9.20;8.40;;;;;;;;;;5104809;28;20233;-69
2022/05/11 00:11:22;;;;;;;9.85;8.93;;;;;;;;;;5104796;28;20218;-69
2022/05/11 00:13:50;;;;;;;9.73;8.73;;;;;;;;;;5104571;28;20222;-69
2022/05/11 00:16:16;;;;;;;8.93;8.13;;;;;;;;;;5104573;28;20249;-69
2022/05/11 00:18:42;;;;;;;9.40;8.60;;;;;;;;;;5104780;28;20203;-69
2022/05/11 00:21:09;;;;;;;9.73;8.57;;;;;;;;;;5104722;28;20395;-69
2022/05/11 00:23:36;;;;;;;9.35;8.15;;;;;;;;;;5104635;28;20434;-69
2022/05/11 00:26:02;;;;;;;8.40;7.78;;;;;;;;;;5104282;28;20241;-69
2022/05/11 00:28:28;;;;;;;9.32;8.32;;;;;;;;;;5104320;28;20195;-69
2022/05/11 00:30:56;;;;;;;9.02;8.32;;;;;;;;;;5104227;28;20218;-69
2022/05/11 00:33:22;;;;;;;8.95;8.23;;;;;;;;;;5104468;28;20555;-69
2022/05/11 00:35:50;;;;;;;8.88;8.18;;;;;;;;;;5104204;28;20218;-69
2022/05/11 00:38:17;;;;;;;9.25;8.32;;;;;;;;;;5104106;28;20202;-69
2022/05/11 00:40:45;;;;;;;9.48;8.55;;;;;;;;;;5104157;28;20234;-68
2022/05/11 00:43:11;;;;;;;11.07;8.75;;;;;;;;;;5104060;28;20457;-68
2022/05/11 00:45:40;;;;;;;9.30;8.35;;;;;;;;;;5104192;28;20195;-68
2022/05/11 00:50:49;;;;;;;9.00;8.30;;;;;;;;;;5103724;28;20192;-68
2022/05/11 00:53:16;;;;;;;9.70;8.80;;;;;;;;;;5103907;28;20212;-68
2022/05/11 00:55:43;;;;;;;9.48;8.75;;;;;;;;;;5103837;28;20241;-68
2022/05/11 00:58:12;;;;;;;10.52;9.52;;;;;;;;;;5103908;28;20497;-69
2022/05/11 01:00:38;;;;;;;13.55;9.18;;;;;;;;;;5103827;28;20530;-69
2022/05/11 01:03:07;;;;;;;9.85;8.95;;;;;;;;;;5103480;28;20249;-69
2022/05/11 01:05:35;;;;;;;9.52;8.75;;;;;;;;;;5103544;28;20223;-69
2022/05/11 01:08:01;;;;;;;10.02;8.88;;;;;;;;;;5103464;28;20475;-69
2022/05/11 01:10:28;;;;;;;9.43;8.63;;;;;;;;;;5103810;28;20195;-68
2022/05/11 01:12:56;;;;;;;9.88;8.98;;;;;;;;;;5103874;28;20241;-68
2022/05/11 01:15:23;;;;;;;10.95;8.88;;;;;;;;;;5103507;28;20196;-68
2022/05/11 01:17:50;;;;;;;10.20;9.15;;;;;;;;;;5103371;28;20206;-68
2022/05/11 01:20:17;;;;;;;9.48;8.57;;;;;;;;;;5103538;28;20205;-68
2022/05/11 01:22:47;;;;;;;9.30;8.52;;;;;;;;;;5103286;28;20200;-68
2022/05/11 01:25:15;;;;;;;9.50;8.65;;;;;;;;;;5103586;28;20183;-68
2022/05/11 01:27:43;;;;;;;9.90;9.10;;;;;;;;;;5103201;28;20199;-68
2022/05/11 01:30:12;;;;;;;9.73;8.93;;;;;;;;;;5103272;28;20394;-68
2022/05/11 01:32:39;;;;;;;10.25;9.25;;;;;;;;;;5103197;28;20196;-68
2022/05/11 01:35:14;;;;;;;8.93;8.18;;;;;;;;;;5102909;28;20260;-68
2022/05/11 01:37:43;;;;;;;9.77;8.88;;;;;;;;;;5103169;28;20241;-68
2022/05/11 01:40:10;;;;;;;12.40;8.93;;;;;;;;;;5103090;28;20526;-68
2022/05/11 01:42:37;;;;;;;9.30;8.55;;;;;;;;;;5102331;28;20211;-68
2022/05/11 01:45:04;;;;;;;9.75;8.95;;;;;;;;;;5103101;28;20211;-68
2022/05/11 01:47:30;;;;;;;9.98;8.95;;;;;;;;;;5102650;28;20421;-68
2022/05/11 01:49:57;;;;;;;10.38;8.45;;;;;;;;;;5103041;28;20526;-68
2022/05/11 01:52:24;;;;;;;9.75;8.68;;;;;;;;;;5102931;28;20567;-69
2022/05/11 01:54:50;;;;;;;10.70;9.45;;;;;;;;;;5102747;28;20546;-68
2022/05/11 01:57:16;;;;;;;9.63;8.77;;;;;;;;;;5102436;28;20199;-68
2022/05/11 01:59:44;;;;;;;9.13;8.40;;;;;;;;;;5102739;28;20203;-68
2022/05/11 02:02:10;;;;;;;9.63;8.50;;;;;;;;;;5102633;28;20487;-68
2022/05/11 02:10:04;;;;;;;9.70;8.70;;;;;;;;;;5102639;28;20194;-69
2022/05/11 02:12:30;;;;;;;11.13;9.38;;;;;;;;;;5102403;28;20227;-69
2022/05/11 02:14:58;;;;;;;9.70;8.80;;;;;;;;;;5101719;28;20253;-69
2022/05/11 02:17:24;;;;;;;8.68;7.97;;;;;;;;;;5102280;28;20226;-69
2022/05/11 02:19:50;;;;;;;9.15;8.45;;;;;;;;;;5102458;28;20195;-69
2022/05/11 02:22:16;;;;;;;9.90;9.02;;;;;;;;;;5102324;28;20196;-68
2022/05/11 02:24:43;;;;;;;9.35;8.65;;;;;;;;;;5102664;28;20188;-68
2022/05/11 02:27:09;;;;;;;10.05;9.13;;;;;;;;;;5102147;28;20203;-69
2022/05/11 02:29:35;;;;;;;9.27;8.48;;;;;;;;;;5102522;28;20200;-69
2022/05/11 02:32:03;;;;;;;10.93;8.63;;;;;;;;;;5102273;28;20241;-68
2022/05/11 02:37:14;;;;;;;9.10;8.40;;;;;;;;;;5102134;28;20497;-68
2022/05/11 02:39:40;;;;;;;8.88;8.18;;;;;;;;;;5102436;28;20200;-68
2022/05/11 02:42:07;;;;;;;8.45;7.80;;;;;;;;;;5102310;28;20432;-69
2022/05/11 02:44:33;;;;;;;8.98;8.20;;;;;;;;;;5102366;28;20191;-69
2022/05/11 02:46:59;;;;;;;8.70;7.97;;;;;;;;;;5102040;28;20200;-69
2022/05/11 02:49:27;;;;;;;9.05;8.35;;;;;;;;;;5102432;28;20207;-69
2022/05/11 02:51:53;;;;;;;8.85;8.07;;;;;;;;;;5102286;28;20233;-69
2022/05/11 02:54:19;;;;;;;9.63;8.73;;;;;;;;;;5102064;28;20223;-69
2022/05/11 02:56:46;;;;;;;10.68;8.02;;;;;;;;;;5101780;28;20199;-69
2022/05/11 02:59:12;;;;;;;9.10;8.30;;;;;;;;;;5102199;28;20199;-69
2022/05/11 03:01:38;;;;;;;9.02;8.23;;;;;;;;;;5101944;28;20203;-69
2022/05/11 03:04:04;;;;;;;9.50;8.63;;;;;;;;;;5102070;28;20488;-69
2022/05/11 03:06:32;;;;;;;9.52;8.68;;;;;;;;;;5101430;28;20262;-69
2022/05/11 03:08:58;;;;;;;9.10;8.38;;;;;;;;;;5101818;28;20196;-69
2022/05/11 03:11:25;;;;;;;8.95;8.18;;;;;;;;;;5102097;28;20267;-69
2022/05/11 03:13:51;;;;;;;9.25;8.45;;;;;;;;;;5101852;28;20207;-69
2022/05/11 03:16:18;;;;;;;10.25;9.30;;;;;;;;;;5101621;28;20203;-69
2022/05/11 03:18:44;;;;;;;9.50;8.70;;;;;;;;;;5102189;28;20210;-69
2022/05/11 03:21:11;;;;;;;8.93;8.02;;;;;;;;;;5102030;28;20235;-69
2022/05/11 03:23:38;;;;;;;11.15;8.43;;;;;;;;;;5101844;28;20196;-69
2022/05/11 03:26:04;;;;;;;9.15;7.78;;;;;;;;;;5102527;28;20199;-69
2022/05/11 03:28:31;;;;;;;8.88;7.97;;;;;;;;;;5105471;28;20196;-69
2022/05/11 03:30:57;;;;;;;8.90;8.00;;;;;;;;;;5105494;28;20252;-69
2022/05/11 03:36:08;;;;;;;8.80;8.05;;;;;;;;;;5105359;28;20194;-69
2022/05/11 03:38:34;;;;;;;9.52;8.68;;;;;;;;;;5105343;28;20196;-69
2022/05/11 03:41:01;;;;;;;9.82;8.88;;;;;;;;;;5105418;28;20241;-69
2022/05/11 03:43:29;;;;;;;11.73;9.00;;;;;;;;;;5105223;28;20727;-69
2022/05/11 03:45:55;;;;;;;11.18;10.00;;;;;;;;;;5105508;28;20202;-69
2022/05/11 03:48:21;;;;;;;10.43;9.32;;;;;;;;;;5105380;28;20241;-69
2022/05/11 03:50:48;;;;;;;10.55;9.75;;;;;;;;;;5105363;28;20196;-69
2022/05/11 03:53:14;;;;;;;10.82;9.75;;;;;;;;;;5105347;28;20452;-69
2022/05/11 03:55:40;;;;;;;10.73;9.80;;;;;;;;;;5104993;28;20555;-69
2022/05/11 03:58:08;;;;;;;11.45;10.40;;;;;;;;;;5104743;28;20195;-69
2022/05/11 04:00:34;;;;;;;11.60;10.40;;;;;;;;;;5105276;28;20496;-69
2022/05/11 04:03:00;;;;;;;10.60;9.63;;;;;;;;;;5105200;28;20211;-69
2022/05/11 04:05:28;;;;;;;12.27;10.38;;;;;;;;;;5105025;28;20216;-69
2022/05/11 04:07:54;;;;;;;12.10;10.85;;;;;;;;;;5104686;28;20219;-69
2022/05/11 04:10:20;;;;;;;11.80;10.55;;;;;;;;;;5104879;28;20414;-69
2022/05/11 04:12:47;;;;;;;13.38;10.10;;;;;;;;;;5104666;28;20211;-69
2022/05/11 04:15:14;;;;;;;11.50;10.32;;;;;;;;;;5104894;28;20227;-69
2022/05/11 04:17:41;;;;;;;10.85;9.80;;;;;;;;;;5104447;28;20271;-69
2022/05/11 04:20:09;;;;;;;10.68;9.77;;;;;;;;;;5105074;28;20217;-69
2022/05/11 04:22:35;;;;;;;12.50;10.20;;;;;;;;;;5104578;28;20195;-69
2022/05/11 04:25:01;;;;;;;13.50;11.52;;;;;;;;;;5104987;28;20192;-69
2022/05/11 04:27:29;;;;;;;12.70;11.45;;;;;;;;;;5104424;28;20403;-69
2022/05/11 04:29:55;;;;;;;12.27;11.15;;;;;;;;;;5105106;28;20196;-69
2022/05/11 04:32:23;;;;;;;11.50;10.32;;;;;;;;;;5104618;28;20204;-69
2022/05/11 04:34:50;;;;;;;12.05;10.02;;;;;;;;;;5104342;28;20216;-69
2022/05/11 04:37:16;;;;;;;11.52;10.40;;;;;;;;;;5103853;28;20267;-69
2022/05/11 04:39:42;;;;;;;11.43;10.32;;;;;;;;;;5103542;28;20196;-68
2022/05/11 04:42:09;;;;;;;10.98;10.00;;;;;;;;;;5104555;28;20208;-68
2022/05/11 04:44:35;;;;;;;11.65;10.55;;;;;;;;;;5104354;28;20368;-68
2022/05/11 04:47:05;;;;;;;11.48;10.27;;;;;;;;;;5104095;28;20196;-68
2022/05/11 04:49:33;;;;;;;12.25;10.48;;;;;;;;;;5104158;28;20196;-70
2022/05/11 04:52:01;;;;;;;12.90;10.70;;;;;;;;;;5104046;28;20199;-68
2022/05/11 04:54:27;;;;;;;11.48;10.38;;;;;;;;;;5104282;28;20212;-68
2022/05/11 04:56:53;;;;;;;11.98;10.77;;;;;;;;;;5104329;28;20203;-68
2022/05/11 04:59:21;;;;;;;12.07;10.85;;;;;;;;;;5104097;28;20570;-68
2022/05/11 05:01:47;;;;;;;12.02;10.95;;;;;;;;;;5103943;28;20495;-68
2022/05/11 05:04:15;;;;;;;12.75;11.55;;;;;;;;;;5103868;28;20214;-68
2022/05/11 05:06:43;;;;;;;12.40;11.20;;;;;;;;;;5103406;28;20231;-69
2022/05/11 05:09:09;;;;;;;12.48;11.25;;;;;;;;;;5103760;28;20203;-68
2022/05/11 05:11:35;;;;;;;12.30;11.15;;;;;;;;;;5104287;28;20195;-69
2022/05/11 05:14:04;;;;;;;11.00;10.10;;;;;;;;;;5103696;28;20391;-68
2022/05/11 05:16:31;;;;;;;11.10;9.98;;;;;;;;;;5103008;28;20405;-68
2022/05/11 05:18:57;;;;;;;11.63;10.40;;;;;;;;;;5103120;28;20199;-68
2022/05/11 05:21:23;;;;;;;10.93;9.93;;;;;;;;;;5103227;28;20202;-68
2022/05/11 05:23:51;;;;;;;12.63;9.90;;;;;;;;;;5103052;28;20207;-68
2022/05/11 05:26:17;;;;;;;10.95;9.90;;;;;;;;;;5103203;28;20191;-68
2022/05/11 05:31:28;;;;;;;11.70;10.63;;;;;;;;;;5103085;28;20229;-68
2022/05/11 05:33:59;;;;;;;12.85;10.40;;;;;;;;;;5102782;28;20204;-68
2022/05/11 05:36:26;;;;;;;11.70;10.52;;;;;;;;;;5102942;28;20192;-68
2022/05/11 05:38:53;;;;;;;11.15;10.05;;;;;;;;;;5102764;28;20196;-68
2022/05/11 05:41:20;;;;;;;11.57;10.52;;;;;;;;;;5102751;28;20195;-68
2022/05/11 05:43:46;;;;;;;11.93;9.95;;;;;;;;;;5102886;28;20221;-68
2022/05/11 05:46:15;;;;;;;10.73;9.65;;;;;;;;;;5102492;28;20196;-68
2022/05/11 05:48:41;;;;;;;10.40;9.32;;;;;;;;;;5102646;28;20202;-68
2022/05/11 05:51:08;;;;;;;11.05;9.65;;;;;;;;;;5099669;28;20196;-69
2022/05/11 05:53:35;;;;;;;10.48;9.45;;;;;;;;;;5087310;28;20208;-68
2022/05/11 05:56:03;;;;;;;10.18;9.20;;;;;;;;;;5093046;28;20642;-68
2022/05/11 05:58:30;;;;;;;10.32;9.32;;;;;;;;;;5096753;28;20233;-68
2022/05/11 06:00:56;;;;;;;10.70;9.20;;;;;;;;;;5096738;28;20273;-68
2022/05/11 06:03:24;;;;;;;11.10;10.07;;;;;;;;;;5095865;28;20250;-68
2022/05/11 06:05:50;;;;;;;10.30;9.48;;;;;;;;;;5093570;28;20241;-69
2022/05/11 06:08:17;;;;;;;10.32;9.43;;;;;;;;;;5096239;28;20214;-68
2022/05/11 06:10:43;;;;;;;9.40;8.60;;;;;;;;;;5096529;28;20610;-68
2022/05/11 06:13:12;;;;;;;9.55;8.60;;;;;;;;;;5096072;28;20411;-61
2022/05/11 06:15:39;;;;;;;9.80;8.90;;;;;;;;;;5096030;28;20231;-61
2022/05/11 06:18:06;;;;;;;9.57;8.70;;;;;;;;;;5096040;28;20207;-61
2022/05/11 06:20:32;;;;;;;11.85;9.90;;;;;;;;;;5096733;28;20264;-62
2022/05/11 06:22:58;;;;;;;11.43;8.80;;;;;;;;;;5095571;28;20249;-62
2022/05/11 06:25:24;;;;;;;11.50;8.95;;;;;;;;;;5096393;28;20346;-62
2022/05/11 06:27:51;;;;;;;10.38;9.43;;;;;;;;;;5095632;28;20207;-61
2022/05/11 06:30:18;;;;;;;9.70;8.75;;;;;;;;;;5095909;28;20207;-62
2022/05/11 06:32:45;;;;;;;9.73;8.85;;;;;;;;;;5095635;28;20207;-62
2022/05/11 06:35:11;;;;;;;9.50;8.60;;;;;;;;;;5095854;28;20371;-62
2022/05/11 06:37:39;;;;;;;8.25;7.53;;;;;;;;;;5095802;28;20208;-62
2022/05/11 06:40:06;;;;;;;9.38;8.32;;;;;;;;;;5095907;28;20212;-62
2022/05/11 06:42:32;;;;;;;8.65;7.85;;;;;;;;;;5095673;28;20215;-62
2022/05/11 06:44:59;;;;;;;9.10;8.20;;;;;;;;;;5095572;28;20210;-63
2022/05/11 06:47:27;;;;;;;10.13;7.68;;;;;;;;;;5096192;28;20211;-62
2022/05/11 06:49:53;;;;;;;9.45;7.78;;;;;;;;;;5096204;28;20208;-62
2022/05/11 06:52:19;;;;;;;8.18;7.47;;;;;;;;;;5091475;28;20458;-62
2022/05/11 07:00:14;;;;;;;8.75;7.95;;;;;;;;;;5095706;28;20211;-63
2022/05/11 07:02:41;;;;;;;13.02;7.80;;;;;;;;;;5099013;28;20215;-63
2022/05/11 07:05:08;;;;;;;10.65;7.70;;;;;;;;;;5099767;28;20228;-63
2022/05/11 07:07:34;;;;;;;8.10;6.88;;;;;;;;;;5099420;28;20219;-63
2022/05/11 07:10:01;;;;;;;8.10;7.35;;;;;;;;;;5099940;28;20558;-63
2022/05/11 07:12:32;;;;;;;7.65;7.05;;;;;;;;;;5099698;28;20519;-62
2022/05/11 07:14:59;;;;;;;10.77;7.22;;;;;;;;;;5099293;28;20250;-62
2022/05/11 07:17:30;;;;;;;7.47;6.75;;;;;;;;;;5099252;28;20464;-62
2022/05/11 07:19:58;;;;;;;7.60;6.88;;;;;;;;;;5097367;28;20215;-62
2022/05/11 07:22:24;;;;;;;9.00;7.15;;;;;;;;;;5098653;28;20211;-62
2022/05/11 07:24:51;;;;;;;7.40;6.63;;;;;;;;;;5098713;28;20523;-62
2022/05/11 07:27:17;;;;;;;10.60;6.85;;;;;;;;;;5099192;28;20455;-62
2022/05/11 07:29:44;;;;;;;8.32;6.78;;;;;;;;;;5099481;28;20253;-62
2022/05/11 07:32:10;;;;;;;7.47;6.78;;;;;;;;;;5099411;28;20295;-62
2022/05/11 07:34:38;;;;;;;8.02;6.13;;;;;;;;;;5097906;28;20211;-62
2022/05/11 07:37:06;;;;;;;7.45;6.65;;;;;;;;;;5098735;28;20215;-62
2022/05/11 07:39:32;;;;;;;8.55;6.93;;;;;;;;;;5099395;28;20208;-62
2022/05/11 07:41:59;;;;;;;6.85;6.40;;;;;;;;;;5099713;28;20229;-62
2022/05/11 07:44:26;;;;;;;6.80;6.25;;;;;;;;;;5099119;28;20215;-63
2022/05/11 07:46:52;;;;;;;6.97;6.28;;;;;;;;;;5098945;28;20208;-63
2022/05/11 07:49:19;;;;;;;6.97;5.85;;;;;;;;;;5098765;28;20238;-63
2022/05/11 07:51:45;;;;;;;6.65;5.65;;;;;;;;;;5098760;28;20226;-63
2022/05/11 07:54:14;;;;;;;6.85;6.35;;;;;;;;;;5098566;28;20216;-63
2022/05/11 08:02:08;;;;;;;8.43;7.53;;;;;;;;;;5098567;28;20249;-61
2022/05/11 08:04:34;;;;;;;6.95;5.97;;;;;;;;;;5098278;28;20208;-62
2022/05/11 08:07:00;;;;;;;7.47;6.03;;;;;;;;;;5098321;28;20204;-62
2022/05/11 08:09:28;;;;;;;6.20;5.60;;;;;;;;;;5098461;28;20561;-62
2022/05/11 08:11:55;;;;;;;6.03;5.38;;;;;;;;;;5098486;28;20212;-62
2022/05/11 08:14:21;;;;;;;6.78;6.13;;;;;;;;;;5097388;28;20249;-61
2022/05/11 08:16:52;;;;;;;10.35;7.05;;;;;;;;;;5098931;28;20228;-62
2022/05/11 08:19:18;;;;;;;6.80;5.25;;;;;;;;;;5099638;28;20420;-62
2022/05/11 08:21:46;;;;;;;8.55;6.60;;;;;;;;;;5098850;28;20208;-62
2022/05/11 08:24:12;;;;;;;4.68;3.30;;;;;;;;;;5098632;28;20515;-62
2022/05/11 08:26:41;;;;;;;3.35;3.17;;;;;;;;;;5098443;28;20257;-62
2022/05/11 08:29:08;;;;;;;3.72;3.33;;;;;;;;;;5098997;28;20440;-62
2022/05/11 08:34:18;;;;;;;3.60;3.30;;;;;;;;;;5098621;28;20206;-62
2022/05/11 08:36:45;;;;;;;3.28;2.97;;;;;;;;;;5098689;28;20570;-62
2022/05/11 08:39:12;;;;;;;3.38;3.13;;;;;;;;;;5098659;28;20207;-62
2022/05/11 08:41:44;;;;;;;3.20;2.90;;;;;;;;;;5098461;28;20207;-62
2022/05/11 08:44:13;;;;;;;4.28;3.47;;;;;;;;;;5098298;28;20519;-62
2022/05/11 08:46:45;;;;;;;3.20;2.90;;;;;;;;;;5097993;28;20556;-61
2022/05/11 08:49:17;;;;;;;3.65;2.85;;;;;;;;;;5099204;28;20207;-62
2022/05/11 08:51:47;;;;;;;5.13;2.85;;;;;;;;;;5100464;28;20543;-62
2022/05/11 08:54:15;;;;;;;3.20;3.00;;;;;;;;;;5098523;28;20207;-62
2022/05/11 08:56:44;;;;;;;2.85;2.65;;;;;;;;;;5097696;28;20235;-62
2022/05/11 08:59:14;;;;;;;2.60;2.50;;;;;;;;;;5098744;28;20414;-63
2022/05/11 09:01:46;;;;;;;3.25;2.47;;;;;;;;;;5098549;28;20278;-63
2022/05/11 09:04:16;;;;;;;6.05;2.67;;;;;;;;;;5097883;28;20222;-62
2022/05/11 09:06:44;;;;;;;2.83;2.60;;;;;;;;;;5098210;28;20219;-63
2022/05/11 09:09:11;;;;;;;4.40;2.58;;;;;;;;;;5084663;28;20222;-63
2022/05/11 09:11:42;;;;;;;2.78;2.67;;;;;;;;;;5085215;28;20535;-61
2022/05/11 09:14:09;;;;;;;6.60;2.97;;;;;;;;;;5094846;28;20207;-63
2022/05/11 09:16:40;;;;;;;5.53;3.05;;;;;;;;;;5097740;28;20227;-62
2022/05/11 09:19:10;;;;;;;4.18;2.67;;;;;;;;;;5097387;28;20211;-62
2022/05/11 09:21:37;;;;;;;3.03;2.92;;;;;;;;;;5097027;28;20437;-62
2022/05/11 09:24:14;;;;;;;4.40;3.00;;;;;;;;;;5097113;28;20204;-62
2022/05/11 09:26:44;;;;;;;5.22;2.58;;;;;;;;;;5097500;28;20448;-61
2022/05/11 09:29:19;;;;;;;8.27;2.72;;;;;;;;;;5097876;28;20535;-61
2022/05/11 09:31:45;;;;;;;3.53;2.80;;;;;;;;;;5097485;28;20245;-62
2022/05/11 09:34:14;;;;;;;4.28;2.70;;;;;;;;;;5097058;28;20211;-62
2022/05/11 09:36:41;;;;;;;2.83;2.55;;;;;;;;;;5097015;28;20223;-62
2022/05/11 09:39:12;;;;;;;2.60;2.45;;;;;;;;;;5097553;28;20568;-61
2022/05/11 09:41:40;;;;;;;3.38;3.03;;;;;;;;;;5097466;28;20207;-62
2022/05/11 09:44:18;;;;;;;2.95;2.83;;;;;;;;;;5097067;28;20420;-62
2022/05/11 09:46:44;;;;;;;4.68;3.67;;;;;;;;;;5097179;28;20214;-62
2022/05/11 09:49:24;;;;;;;4.20;3.45;;;;;;;;;;5097279;28;20214;-62
2022/05/11 09:51:54;;;;;;;5.57;2.97;;;;;;;;;;5097500;28;20222;-62
2022/05/11 09:54:22;;;;;;;4.18;3.22;;;;;;;;;;5096686;28;20264;-62
2022/05/11 09:56:54;;;;;;;4.13;3.10;;;;;;;;;;5096951;28;20227;-61
2022/05/11 09:59:23;;;;;;;3.58;3.03;;;;;;;;;;5097241;28;20229;-63
2022/05/11 10:01:50;;;;;;;3.22;2.95;;;;;;;;;;5097246;28;20502;-62
2022/05/11 10:04:18;;;;;;;3.30;3.00;;;;;;;;;;5096564;28;20215;-63
2022/05/11 10:06:48;;;;;;;2.80;2.63;;;;;;;;;;5095327;28;20292;-63
2022/05/11 10:09:15;;;;;;;3.20;2.88;;;;;;;;;;5097152;28;20206;-63
2022/05/11 10:11:45;;;;;;;2.88;2.70;;;;;;;;;;5096912;28;20305;-63
2022/05/11 10:22:33;;;;;;;2.78;2.67;;;;;;;;;;5096649;28;20206;-63
2022/05/11 10:25:04;;;;;;;4.20;2.85;;;;;;;;;;5096301;28;20249;-63
2022/05/11 10:27:34;;;;;;;4.70;3.08;;;;;;;;;;5095544;28;20222;-63
2022/05/11 10:30:04;;;;;;;3.20;2.90;;;;;;;;;;5096641;28;20519;-63
2022/05/11 10:32:34;;;;;;;3.20;2.95;;;;;;;;;;5096585;28;20211;-63
2022/05/11 10:35:03;;;;;;;3.30;2.88;;;;;;;;;;5096243;28;20207;-63
2022/05/11 10:37:32;;;;;;;3.17;2.78;;;;;;;;;;5095920;28;20223;-64
2022/05/11 10:40:07;;;;;;;4.70;2.80;;;;;;;;;;5096570;28;20647;-63
2022/05/11 10:42:34;;;;;;;4.53;2.55;;;;;;;;;;5096618;28;20207;-63
2022/05/11 10:45:05;;;;;;;4.57;2.65;;;;;;;;;;5096281;28;20238;-62
2022/05/11 10:47:49;;;;;;;4.20;2.90;;;;;;;;;;5096354;28;20203;-62
2022/05/11 10:50:21;;;;;;;3.53;2.65;;;;;;;;;;5096610;28;20211;-62
2022/05/11 10:53:04;;;;;;;5.63;2.33;;;;;;;;;;5096456;28;20514;-62
2022/05/11 10:55:35;;;;;;;2.55;2.40;;;;;;;;;;5096269;28;20214;-62
2022/05/11 10:58:08;;;;;;;6.22;2.50;;;;;;;;;;5096680;28;20204;-62
2022/05/11 11:00:38;;;;;;;5.78;2.65;;;;;;;;;;5096076;28;20215;-64
2022/05/11 11:03:17;;;;;;;5.97;2.33;;;;;;;;;;5095795;28;20219;-62
2022/05/11 11:07:11;;;;;;;5.97;2.72;;;;;;;;;;5096590;28;20223;-63
2022/05/11 11:08:38;;;;;;;2.42;2.05;;;;;;;;;;5096654;28;20420;-63
2022/05/11 11:11:07;;;;;;;2.35;2.03;;;;;;;;;;5096402;28;20207;-64
2022/05/11 11:13:39;;;;;;;2.88;2.13;;;;;;;;;;5095353;28;20219;-61
2022/05/11 11:16:06;;;;;;;2.75;2.40;;;;;;;;;;5095945;28;20215;-62
2022/05/11 11:18:33;;;;;;;2.47;2.30;;;;;;;;;;5096345;28;20325;-64
2022/05/11 11:21:02;;;;;;;4.80;1.98;;;;;;;;;;5096573;28;20207;-64
2022/05/11 11:23:31;;;;;;;2.60;2.40;;;;;;;;;;5096346;28;20214;-64
2022/05/11 11:25:58;;;;;;;6.25;2.30;;;;;;;;;;5095720;28;20213;-63
2022/05/11 11:28:25;;;;;;;2.20;2.10;;;;;;;;;;5096211;28;20200;-62
2022/05/11 11:31:12;;;;;;;3.58;2.33;;;;;;;;;;5095918;28;20207;-62
2022/05/11 11:33:39;;;;;;;4.68;1.85;;;;;;;;;;5095917;28;20199;-61
2022/05/11 11:36:27;;;;;;;5.13;2.15;;;;;;;;;;5095435;28;20208;-62
2022/05/11 11:38:53;;;;;;;4.45;2.30;;;;;;;;;;5096139;28;20214;-62
2022/05/11 11:41:20;;;;;;;2.30;1.90;;;;;;;;;;5096053;28;20235;-61
2022/05/11 11:43:52;;;;;;;2.10;1.95;;;;;;;;;;5095783;28;20468;-62
2022/05/11 11:46:28;;;;;;;2.15;2.15;;;;;;;;;;5095844;28;20279;-62
2022/05/11 11:49:01;;;;;;;2.20;2.00;;;;;;;;;;5099083;28;20207;-62
2022/05/11 11:51:34;;;;;;;2.20;2.10;;;;;;;;;;5099682;28;20252;-62
2022/05/11 11:54:01;;;;;;;2.83;2.00;;;;;;;;;;5099154;28;20516;-62
2022/05/11 11:56:46;;;;;;;2.08;1.90;;;;;;;;;;5098848;28;20461;-62
2022/05/11 11:59:31;;;;;;;4.25;2.40;;;;;;;;;;5099630;28;20409;-62
2022/05/11 12:02:00;;;;;;;2.58;2.15;;;;;;;;;;5099324;28;20457;-62
2022/05/11 12:04:29;;;;;;;7.40;2.13;;;;;;;;;;5098876;28;20217;-63
2022/05/11 12:15:20;;;;;;;3.75;2.40;;;;;;;;;;5098781;28;20226;-62
2022/05/11 12:17:47;;;;;;;2.75;2.10;;;;;;;;;;5098713;28;20223;-62
2022/05/11 12:20:14;;;;;;;5.35;2.38;;;;;;;;;;5098847;28;20207;-62
2022/05/11 12:22:43;;;;;;;4.28;2.53;;;;;;;;;;5098857;28;20514;-62
2022/05/11 12:25:17;;;;;;;3.00;2.30;;;;;;;;;;5098589;28;20211;-62
2022/05/11 12:27:44;;;;;;;2.42;2.17;;;;;;;;;;5098811;28;20240;-62
2022/05/11 12:30:16;;;;;;;3.30;2.40;;;;;;;;;;5098964;28;20206;-62
2022/05/11 12:32:50;;;;;;;2.60;2.50;;;;;;;;;;5098758;28;20264;-62
2022/05/11 12:35:18;;;;;;;3.05;2.22;;;;;;;;;;5098407;28;20207;-62
2022/05/11 12:37:53;;;;;;;2.60;2.40;;;;;;;;;;5098496;28;20298;-63
2022/05/11 12:40:21;;;;;;;3.78;2.42;;;;;;;;;;5098870;28;20253;-62
2022/05/11 12:42:48;;;;;;;4.40;2.33;;;;;;;;;;5098536;28;20567;-62
2022/05/11 12:45:16;;;;;;;3.55;2.42;;;;;;;;;;5097930;28;20523;-62
2022/05/11 12:47:45;;;;;;;3.92;2.33;;;;;;;;;;5098067;28;20203;-62
2022/05/11 12:50:17;;;;;;;5.28;2.00;;;;;;;;;;5098344;28;20215;-62
2022/05/11 12:52:44;;;;;;;2.13;2.13;;;;;;;;;;5098007;28;20203;-62
2022/05/11 12:55:12;;;;;;;2.97;2.30;;;;;;;;;;5097841;28;20214;-61
2022/05/11 12:57:40;;;;;;;8.73;2.05;;;;;;;;;;5097607;28;20237;-62
2022/05/11 13:00:11;;;;;;;1.83;1.73;;;;;;;;;;5097620;28;20451;-62
2022/05/11 13:02:41;;;;;;;2.25;2.00;;;;;;;;;;5097889;28;20538;-62
2022/05/11 13:05:09;;;;;;;10.02;2.20;;;;;;;;;;5097557;28;20273;-63
2022/05/11 13:07:39;;;;;;;4.43;2.30;;;;;;;;;;5097815;28;20204;-63
2022/05/11 13:10:07;;;;;;;2.67;2.03;;;;;;;;;;5098032;28;20207;-61
2022/05/11 13:12:35;;;;;;;4.90;2.10;;;;;;;;;;5098421;28;20572;-62
2022/05/11 13:15:02;;;;;;;4.40;1.80;;;;;;;;;;5097653;28;20207;-62
2022/05/11 13:17:32;;;;;;;3.20;1.85;;;;;;;;;;5097647;28;20739;-62
2022/05/11 13:20:00;;;;;;;2.17;2.00;;;;;;;;;;5097883;28;20523;-62
2022/05/11 13:22:28;;;;;;;7.40;2.00;;;;;;;;;;5097913;28;20207;-62
2022/05/11 13:24:56;;;;;;;4.75;2.38;;;;;;;;;;5097507;28;20614;-62
2022/05/11 13:27:38;;;;;;;4.38;2.20;;;;;;;;;;5097009;28;20436;-71
2022/05/11 13:30:09;;;;;;;2.45;1.80;;;;;;;;;;5097611;28;20249;-71
2022/05/11 13:32:37;;;;;;;4.10;1.80;;;;;;;;;;5097817;28;20546;-72
2022/05/11 13:35:16;;;;;;;4.88;1.77;;;;;;;;;;5096993;28;20214;-72
2022/05/11 13:37:53;;;;;;;6.97;2.20;;;;;;;;;;5097210;28;20419;-72
2022/05/11 13:40:25;;;;;;;1.98;1.88;;;;;;;;;;5097809;28;20206;-72
2022/05/11 13:42:53;;;;;;;5.72;1.80;;;;;;;;;;5097364;28;20481;-72
2022/05/11 13:45:20;;;;;;;2.60;1.90;;;;;;;;;;5097320;28;20372;-72
2022/05/11 13:50:35;;;;;;;3.40;1.70;;;;;;;;;;5097052;28;20248;-72
2022/05/11 13:53:04;;;;;;;2.75;1.77;;;;;;;;;;5096641;28;20203;-72
2022/05/11 13:55:32;;;;;;;2.03;1.77;;;;;;;;;;5096587;28;20568;-72
2022/05/11 13:58:13;;;;;;;3.55;2.10;;;;;;;;;;5096554;28;20321;-72
2022/05/11 14:00:41;;;;;;;6.88;1.77;;;;;;;;;;5096647;28;20265;-72
2022/05/11 14:03:07;;;;;;;5.35;2.05;;;;;;;;;;5096841;28;20218;-72
2022/05/11 14:05:34;;;;;;;3.97;2.10;;;;;;;;;;5096580;28;20223;-72
2022/05/11 14:08:00;;;;;;;3.55;1.75;;;;;;;;;;5096406;28;20442;-72
2022/05/11 14:10:26;;;;;;;5.63;1.70;;;;;;;;;;5096062;28;20288;-72
2022/05/11 14:12:53;;;;;;;4.20;1.80;;;;;;;;;;5096477;28;20211;-71
2022/05/11 14:15:19;;;;;;;5.38;1.92;;;;;;;;;;5096109;28;20263;-72
2022/05/11 14:17:47;;;;;;;8.15;1.80;;;;;;;;;;5096217;28;20223;-72
2022/05/11 14:20:14;;;;;;;2.28;1.80;;;;;;;;;;5096798;28;20273;-72
2022/05/11 14:22:43;;;;;;;2.03;1.80;;;;;;;;;;5096978;28;20203;-72
2022/05/11 14:25:11;;;;;;;4.57;1.80;;;;;;;;;;5096546;28;20276;-72
2022/05/11 14:27:37;;;;;;;8.25;1.98;;;;;;;;;;5096201;28;20244;-72
2022/05/11 14:30:04;;;;;;;3.78;1.90;;;;;;;;;;5096393;28;20214;-72
2022/05/11 14:32:32;;;;;;;3.08;1.90;;;;;;;;;;5096129;28;20411;-72
2022/05/11 14:35:00;;;;;;;5.05;1.70;;;;;;;;;;5096001;28;20207;-72
2022/05/11 14:37:26;;;;;;;5.22;1.92;;;;;;;;;;5095589;28;20427;-72
2022/05/11 14:39:53;;;;;;;2.92;1.88;;;;;;;;;;5096256;28;20207;-72
2022/05/11 14:42:20;;;;;;;1.90;1.77;;;;;;;;;;5096360;28;20557;-72
2022/05/11 14:44:46;;;;;;;8.43;1.92;;;;;;;;;;5096012;28;20211;-72
2022/05/11 14:47:13;;;;;;;1.88;1.70;;;;;;;;;;5096400;28;20378;-72
2022/05/11 14:49:40;;;;;;;2.38;1.75;;;;;;;;;;5096389;28;20221;-72
2022/05/11 14:52:08;;;;;;;3.55;1.60;;;;;;;;;;5096257;28;20257;-72
2022/05/11 14:54:35;;;;;;;3.30;1.50;;;;;;;;;;5095786;28;20207;-72
2022/05/11 15:02:31;;;;;;;1.77;1.60;;;;;;;;;;5075716;28;20217;-71
2022/05/11 15:04:57;;;;;;;3.03;1.70;;;;;;;;;;5091249;28;20223;-71
2022/05/11 15:07:25;;;;;;;3.38;1.73;;;;;;;;;;5095501;28;20276;-71
2022/05/11 15:09:53;;;;;;;2.13;1.70;;;;;;;;;;5095921;28;20218;-71
2022/05/11 15:15:03;;;;;;;2.58;1.80;;;;;;;;;;5095614;28;20347;-72
2022/05/11 15:17:30;;;;;;;2.75;1.65;;;;;;;;;;5096079;28;20255;-72
2022/05/11 15:20:00;;;;;;;4.13;1.63;;;;;;;;;;5096567;28;20207;-72
2022/05/11 15:22:28;;;;;;;1.65;1.63;;;;;;;;;;5097579;28;20514;-71
2022/05/11 15:24:55;;;;;;;2.50;1.73;;;;;;;;;;5099809;28;20214;-72
2022/05/11 15:27:21;;;;;;;5.35;1.75;;;;;;;;;;5099746;28;20514;-72
2022/05/11 15:29:47;;;;;;;3.67;1.90;;;;;;;;;;5100171;28;20211;-72
2022/05/11 15:32:21;;;;;;;3.13;1.70;;;;;;;;;;5098974;28;20273;-71
2022/05/11 15:34:47;;;;;;;3.58;1.83;;;;;;;;;;5099027;28;20466;-72
2022/05/11 15:37:13;;;;;;;2.35;1.83;;;;;;;;;;5098568;28;20211;-72
2022/05/11 15:39:41;;;;;;;1.80;1.70;;;;;;;;;;5099112;28;20457;-72
2022/05/11 15:42:08;;;;;;;2.83;1.67;;;;;;;;;;5099618;28;20547;-72